createdAt,value
2018-11-06T00:00:54.809Z,11.40
2018-11-06T00:03:29.937Z,11.20
2018-11-06T00:06:00.033Z,20.10
2018-11-06T00:08:29.928Z,20.07
2018-11-06T00:10:59.754Z,14.93
2018-11-06T00:13:29.707Z,29.97
2018-11-06T00:15:59.605Z,38.30
2018-11-06T00:18:29.492Z,16.83
2018-11-06T00:21:00.380Z,13.17
2018-11-06T00:27:54.475Z,19.53
2018-11-06T00:30:25.082Z,21.37
2018-11-06T00:32:55.183Z,17.27
2018-11-06T00:35:25.097Z,27.83
2018-11-06T00:37:55.844Z,20.90
2018-11-06T00:40:26.697Z,18.97
2018-11-06T00:42:56.614Z,18.13
2018-11-06T00:45:27.304Z,16.07
2018-11-06T00:47:57.189Z,11.60
2018-11-06T00:50:27.104Z,21.40
2018-11-06T00:52:57.049Z,14.13
2018-11-06T00:55:26.973Z,10.77
2018-11-06T00:57:56.921Z,15.90
2018-11-06T01:00:26.737Z,17.47
2018-11-06T01:02:56.679Z,19.83
2018-11-06T01:05:26.693Z,20.47
2018-11-06T01:07:56.563Z,15.20
2018-11-06T01:10:26.498Z,19.10
2018-11-06T01:12:56.361Z,18.83
2018-11-06T01:15:26.322Z,28.60
2018-11-06T01:17:56.363Z,113.67
2018-11-06T01:20:26.166Z,99.50
2018-11-06T01:22:55.976Z,57.87
2018-11-06T01:25:25.732Z,160.73
2018-11-06T01:27:55.672Z,53.70
2018-11-06T01:30:25.935Z,81.50
2018-11-06T01:32:55.912Z,103.87
2018-11-06T01:35:25.671Z,39.67
2018-11-06T01:37:55.491Z,21.70
2018-11-06T01:40:25.211Z,16.10
2018-11-06T01:42:55.003Z,50.73
2018-11-06T01:45:24.789Z,28.50
2018-11-06T01:47:54.590Z,23.43
2018-11-06T01:50:24.420Z,45.43
2018-11-06T01:52:54.239Z,36.93
2018-11-06T01:55:24.651Z,54.77
2018-11-06T01:57:55.079Z,87.23
2018-11-06T02:00:25.711Z,139.03
2018-11-06T02:02:55.536Z,103.97
2018-11-06T02:05:26.023Z,95.27
2018-11-06T02:07:55.840Z,119.37
2018-11-06T02:10:25.769Z,83.03
2018-11-06T02:12:55.503Z,13.57
2018-11-06T02:15:25.293Z,98.53
2018-11-06T02:17:55.025Z,28.57
2018-11-06T02:20:24.757Z,30.27
2018-11-06T02:22:54.481Z,27.10
2018-11-06T02:25:24.269Z,71.37
2018-11-06T02:27:54.041Z,65.83
2018-11-06T02:30:23.781Z,100.20
2018-11-06T02:32:54.105Z,58.37
2018-11-06T02:35:23.856Z,83.57
2018-11-06T02:37:53.591Z,39.63
2018-11-06T02:40:23.318Z,28.50
2018-11-06T02:42:53.042Z,27.57
2018-11-06T02:45:22.781Z,27.57
2018-11-06T02:47:52.529Z,70.97
2018-11-06T02:50:22.297Z,41.37
2018-11-06T02:52:52.085Z,23.53
2018-11-06T02:55:22.375Z,17.07
2018-11-06T02:57:52.108Z,14.57
2018-11-06T03:00:21.935Z,19.07
2018-11-06T03:02:51.697Z,46.43
2018-11-06T03:05:21.468Z,37.13
2018-11-06T03:07:51.240Z,50.30
2018-11-06T03:10:21.506Z,69.23
2018-11-06T03:12:51.712Z,34.13
2018-11-06T03:16:51.018Z,28.00
2018-11-06T03:19:20.932Z,27.63
2018-11-06T03:21:50.767Z,36.83
2018-11-06T03:24:20.494Z,21.60
2018-11-06T03:26:50.283Z,28.77
2018-11-06T03:29:20.587Z,55.63
2018-11-06T03:31:50.327Z,42.80
2018-11-06T03:34:20.133Z,14.17
2018-11-06T03:36:49.884Z,11.23
2018-11-06T03:39:19.717Z,11.60
2018-11-06T03:41:49.542Z,10.20
2018-11-06T03:44:19.517Z,10.30
2018-11-06T03:46:49.314Z,10.93
2018-11-06T03:49:19.066Z,14.07
2018-11-06T03:51:49.050Z,23.20
2018-11-06T03:54:18.799Z,28.20
2018-11-06T03:56:48.583Z,19.30
2018-11-06T03:59:18.440Z,22.83
2018-11-06T04:01:48.160Z,26.97
2018-11-06T04:04:17.983Z,35.43
2018-11-06T04:06:47.823Z,15.10
2018-11-06T04:09:17.650Z,13.80
2018-11-06T04:11:47.469Z,15.83
2018-11-06T04:14:17.870Z,25.57
2018-11-06T04:16:47.648Z,14.83
2018-11-06T04:19:17.390Z,12.03
2018-11-06T04:21:47.414Z,11.67
2018-11-06T04:24:17.310Z,10.37
2018-11-06T04:26:47.260Z,13.37
2018-11-06T04:29:17.048Z,12.43
2018-11-06T04:31:46.796Z,14.60
2018-11-06T04:34:16.719Z,12.93
2018-11-06T04:36:46.498Z,15.97
2018-11-06T04:39:16.262Z,16.63
2018-11-06T04:41:46.067Z,19.47
2018-11-06T04:44:16.013Z,17.87
2018-11-06T04:46:45.745Z,30.27
2018-11-06T04:49:15.852Z,18.37
2018-11-06T04:51:45.617Z,18.30
2018-11-06T04:57:50.891Z,21.57
2018-11-06T05:00:20.983Z,17.40
2018-11-06T05:02:51.180Z,25.63
2018-11-06T05:05:20.989Z,19.57
2018-11-06T05:07:51.093Z,110.67
2018-11-06T05:10:20.883Z,46.60
2018-11-06T05:12:50.629Z,32.33
2018-11-06T05:15:20.390Z,23.60
2018-11-06T05:17:50.196Z,39.00
2018-11-06T05:20:20.342Z,34.87
2018-11-06T05:22:50.116Z,26.10
2018-11-06T05:25:19.933Z,29.87
2018-11-06T05:27:49.871Z,28.00
2018-11-06T05:30:19.655Z,324.50
2018-11-06T05:32:50.665Z,264.40
2018-11-06T05:35:20.633Z,79.77
2018-11-06T05:37:50.410Z,31.43
2018-11-06T05:40:37.043Z,28.13
2018-11-06T05:43:07.286Z,131.40
2018-11-06T05:45:37.116Z,20.83
2018-11-06T05:48:07.496Z,22.70
2018-11-06T05:50:37.290Z,30.03
2018-11-06T05:53:07.167Z,32.10
2018-11-06T05:55:37.933Z,28.53
2018-11-06T05:58:07.753Z,23.23
2018-11-06T06:00:37.508Z,18.43
2018-11-06T06:03:07.852Z,18.47
2018-11-06T06:05:37.616Z,17.70
2018-11-06T06:08:07.926Z,17.83
2018-11-06T06:10:37.742Z,18.67
2018-11-06T06:13:08.057Z,16.93
2018-11-06T06:15:37.819Z,28.50
2018-11-06T06:18:07.610Z,23.07
2018-11-06T06:20:38.132Z,20.53
2018-11-06T06:23:07.931Z,17.97
2018-11-06T06:25:37.794Z,16.10
2018-11-06T06:28:07.597Z,16.63
2018-11-06T06:30:37.415Z,39.97
2018-11-06T06:33:07.185Z,18.30
2018-11-06T06:35:37.014Z,15.33
2018-11-06T06:38:07.227Z,17.03
2018-11-06T06:40:37.157Z,20.60
2018-11-06T06:43:07.947Z,21.03
2018-11-06T06:45:37.746Z,12.70
2018-11-06T06:48:08.402Z,11.07
2018-11-06T06:50:38.349Z,12.73
2018-11-06T06:53:08.152Z,11.27
2018-11-06T06:55:37.977Z,10.10
2018-11-06T06:58:07.735Z,9.70
2018-11-06T07:00:37.520Z,11.83
2018-11-06T07:03:07.331Z,12.20
2018-11-06T07:05:37.144Z,10.43
2018-11-06T07:08:07.059Z,11.33
2018-11-06T07:10:36.919Z,13.13
2018-11-06T07:13:07.210Z,14.10
2018-11-06T07:15:37.195Z,14.00
2018-11-06T07:18:07.153Z,14.63
2018-11-06T07:20:36.935Z,14.33
2018-11-06T07:23:07.039Z,12.47
2018-11-06T07:25:36.855Z,10.37
2018-11-06T07:28:07.132Z,9.13
2018-11-06T07:30:36.878Z,15.70
2018-11-06T07:33:06.691Z,17.70
2018-11-06T07:35:36.669Z,18.27
2018-11-06T07:38:06.967Z,20.60
2018-11-06T07:40:36.788Z,17.03
2018-11-06T07:43:07.790Z,17.90
2018-11-06T07:45:37.735Z,12.37
2018-11-06T07:48:07.533Z,12.80
2018-11-06T07:50:37.291Z,12.07
2018-11-06T07:53:07.067Z,13.33
2018-11-06T07:55:36.900Z,10.07
2018-11-06T07:58:07.111Z,15.43
2018-11-06T08:00:37.017Z,10.97
2018-11-06T08:03:06.943Z,10.10
2018-11-06T08:05:36.753Z,11.10
2018-11-06T08:08:07.883Z,15.80
2018-11-06T08:10:37.725Z,15.80
2018-11-06T08:13:08.007Z,11.53
2018-11-06T08:15:37.863Z,12.13
2018-11-06T08:18:07.740Z,14.87
2018-11-06T08:20:37.870Z,12.67
2018-11-06T08:23:07.819Z,14.67
2018-11-06T08:25:37.779Z,17.23
2018-11-06T08:28:08.363Z,13.30
2018-11-06T08:30:38.443Z,15.07
2018-11-06T08:33:08.372Z,13.97
2018-11-06T08:35:38.166Z,15.13
2018-11-06T08:38:08.053Z,13.60
2018-11-06T08:40:38.657Z,13.00
2018-11-06T08:43:08.470Z,12.57
2018-11-06T08:45:38.370Z,10.07
2018-11-06T08:48:08.173Z,12.17
2018-11-06T08:50:38.162Z,12.07
2018-11-06T08:53:07.906Z,11.07
2018-11-06T08:55:37.640Z,13.97
2018-11-06T08:58:07.502Z,13.03
2018-11-06T09:00:37.713Z,15.30
2018-11-06T09:03:07.539Z,12.90
2018-11-06T09:05:37.278Z,12.63
2018-11-06T09:08:07.090Z,11.63
2018-11-06T09:10:37.030Z,13.27
2018-11-06T09:13:06.925Z,14.07
2018-11-06T09:15:36.726Z,20.67
2018-11-06T09:18:06.550Z,15.03
2018-11-06T09:20:36.430Z,13.60
2018-11-06T09:23:06.270Z,13.07
2018-11-06T09:25:36.050Z,15.93
2018-11-06T09:28:05.928Z,16.77
2018-11-06T09:30:35.785Z,13.17
2018-11-06T09:33:05.758Z,11.80
2018-11-06T09:35:35.539Z,11.73
2018-11-06T09:38:05.435Z,13.27
2018-11-06T09:40:35.229Z,12.03
2018-11-06T09:43:05.650Z,12.43
2018-11-06T09:45:35.553Z,14.60
2018-11-06T09:48:06.034Z,12.17
2018-11-06T09:50:35.920Z,11.40
2018-11-06T09:53:06.132Z,11.70
2018-11-06T09:55:35.954Z,11.30
2018-11-06T09:58:06.532Z,11.03
2018-11-06T10:00:36.434Z,11.67
2018-11-06T10:03:06.675Z,11.33
2018-11-06T10:05:36.433Z,12.37
2018-11-06T10:08:06.559Z,11.70
2018-11-06T10:10:36.352Z,13.07
2018-11-06T10:13:06.400Z,14.57
2018-11-06T10:15:36.230Z,21.03
2018-11-06T10:18:07.446Z,13.37
2018-11-06T10:20:37.211Z,13.03
2018-11-06T10:23:07.632Z,13.63
2018-11-06T10:25:37.435Z,13.30
2018-11-06T10:28:07.245Z,13.30
2018-11-06T10:30:37.211Z,16.30
2018-11-06T10:33:07.327Z,21.60
2018-11-06T10:35:37.192Z,17.60
2018-11-06T10:38:07.509Z,24.80
2018-11-06T10:40:38.040Z,18.67
2018-11-06T10:43:08.014Z,14.00
2018-11-06T10:45:38.052Z,12.57
2018-11-06T10:48:07.960Z,13.60
2018-11-06T10:50:37.770Z,13.73
2018-11-06T10:53:07.634Z,11.67
2018-11-06T10:55:37.475Z,12.10
2018-11-06T10:58:07.648Z,12.93
2018-11-06T11:00:43.308Z,12.57
2018-11-06T11:03:18.322Z,13.50
2018-11-06T11:05:48.323Z,12.40
2018-11-06T11:08:18.138Z,19.10
2018-11-06T11:10:48.100Z,12.27
2018-11-06T11:13:17.977Z,12.07
2018-11-06T11:15:48.188Z,11.13
2018-11-06T11:18:18.034Z,11.37
2018-11-06T11:20:47.916Z,10.27
2018-11-06T11:23:18.316Z,11.50
2018-11-06T11:25:48.275Z,11.53
2018-11-06T11:28:18.228Z,12.93
2018-11-06T11:30:48.781Z,13.30
2018-11-06T11:33:18.629Z,10.87
2018-11-06T11:35:49.153Z,14.03
2018-11-06T11:38:19.199Z,10.57
2018-11-06T11:40:50.087Z,11.33
2018-11-06T11:43:19.893Z,10.60
2018-11-06T11:45:49.899Z,14.00
2018-11-06T11:48:20.559Z,10.57
2018-11-06T11:50:50.479Z,11.77
2018-11-06T11:53:20.497Z,13.20
2018-11-06T11:55:50.365Z,11.97
2018-11-06T11:58:20.339Z,14.00
2018-11-06T12:00:50.581Z,13.60
2018-11-06T12:03:20.468Z,12.67
2018-11-06T12:05:50.376Z,13.93
2018-11-06T12:08:20.755Z,12.60
2018-11-06T12:10:50.653Z,13.53
2018-11-06T12:13:20.444Z,12.63
2018-11-06T12:15:50.282Z,13.67
2018-11-06T12:18:20.111Z,16.77
2018-11-06T12:20:50.794Z,14.23
2018-11-06T12:23:20.594Z,14.23
2018-11-06T12:25:50.556Z,17.30
2018-11-06T12:28:20.771Z,14.30
2018-11-06T12:30:50.692Z,17.23
2018-11-06T12:33:20.525Z,16.27
2018-11-06T12:35:50.455Z,15.67
2018-11-06T12:38:22.027Z,15.80
2018-11-06T12:40:52.093Z,15.83
2018-11-06T12:43:22.649Z,18.47
2018-11-06T12:45:52.635Z,15.93
2018-11-06T12:48:22.463Z,15.83
2018-11-06T12:50:52.275Z,16.33
2018-11-06T12:53:22.181Z,19.03
2018-11-06T12:55:52.069Z,15.53
2018-11-06T12:58:21.913Z,13.97
2018-11-06T13:00:51.879Z,14.77
2018-11-06T13:03:21.978Z,19.07
2018-11-06T13:05:52.015Z,19.80
2018-11-06T13:08:22.504Z,20.07
2018-11-06T13:10:52.324Z,18.00
2018-11-06T13:13:22.125Z,22.40
2018-11-06T13:15:52.065Z,15.87
2018-11-06T13:18:22.074Z,14.47
2018-11-06T13:20:52.623Z,17.13
2018-11-06T13:23:22.491Z,15.17
2018-11-06T13:25:52.586Z,14.90
2018-11-06T13:28:23.355Z,15.30
2018-11-06T13:30:53.515Z,14.23
2018-11-06T13:33:23.371Z,15.13
2018-11-06T13:35:53.236Z,13.77
2018-11-06T13:38:23.026Z,16.40
2018-11-06T13:40:52.892Z,17.17
2018-11-06T13:43:22.796Z,15.43
2018-11-06T13:45:52.935Z,13.97
2018-11-06T13:48:22.851Z,16.50
2018-11-06T13:50:52.752Z,13.07
2018-11-06T13:53:22.616Z,13.50
2018-11-06T13:55:52.461Z,16.50
2018-11-06T13:58:22.361Z,17.50
2018-11-06T14:00:52.863Z,15.23
2018-11-06T14:03:22.742Z,13.13
2018-11-06T14:05:53.087Z,14.30
2018-11-06T14:08:23.265Z,13.57
2018-11-06T14:10:53.091Z,11.00
2018-11-06T14:13:22.913Z,13.73
2018-11-06T14:15:52.861Z,9.23
2018-11-06T14:18:22.783Z,9.87
2018-11-06T14:20:52.700Z,10.00
2018-11-06T14:23:22.805Z,18.43
2018-11-06T14:25:52.720Z,9.50
2018-11-06T14:28:22.781Z,9.13
2018-11-06T14:30:53.368Z,11.73
2018-11-06T14:33:23.446Z,13.77
2018-11-06T14:35:53.561Z,9.67
2018-11-06T14:38:23.637Z,10.20
2018-11-06T14:40:53.612Z,9.27
2018-11-06T14:43:23.933Z,8.57
2018-11-06T14:45:54.294Z,6.70
2018-11-06T14:48:24.396Z,7.73
2018-11-06T14:50:54.561Z,10.93
2018-11-06T14:53:24.632Z,6.67
2018-11-06T14:55:54.734Z,8.87
2018-11-06T14:58:24.728Z,7.13
2018-11-06T15:00:54.736Z,6.80
2018-11-06T15:03:24.716Z,7.87
2018-11-06T15:05:54.578Z,5.60
2018-11-06T15:08:24.388Z,6.60
2018-11-06T15:10:54.240Z,9.63
2018-11-06T15:13:24.076Z,7.53
2018-11-06T15:15:54.753Z,5.97
2018-11-06T15:18:24.742Z,7.17
2018-11-06T15:20:54.859Z,11.40
2018-11-06T15:23:24.850Z,10.67
2018-11-06T15:25:54.744Z,8.10
2018-11-06T15:28:24.536Z,9.33
2018-11-06T15:30:54.660Z,6.73
2018-11-06T15:33:25.149Z,8.00
2018-11-06T15:35:55.345Z,7.33
2018-11-06T15:38:25.418Z,6.67
2018-11-06T15:40:55.245Z,5.57
2018-11-06T15:43:25.279Z,7.47
2018-11-06T15:45:55.139Z,9.20
2018-11-06T15:48:25.177Z,7.17
2018-11-06T15:50:55.195Z,8.13
2018-11-06T15:53:24.948Z,7.43
2018-11-06T15:55:54.922Z,6.50
2018-11-06T15:58:24.808Z,6.63
2018-11-06T16:00:55.511Z,8.27
2018-11-06T16:03:25.504Z,7.83
2018-11-06T16:05:55.294Z,7.47
2018-11-06T16:08:25.254Z,8.27
2018-11-06T16:10:55.136Z,7.97
2018-11-06T16:13:24.990Z,6.87
2018-11-06T16:15:55.004Z,7.03
2018-11-06T16:18:24.862Z,10.97
2018-11-06T16:20:54.762Z,8.47
2018-11-06T16:23:24.662Z,7.23
2018-11-06T16:25:54.586Z,6.70
2018-11-06T16:28:24.396Z,7.17
2018-11-06T16:30:54.216Z,7.60
2018-11-06T16:33:24.047Z,5.40
2018-11-06T16:35:53.990Z,6.47
2018-11-06T16:38:24.604Z,4.10
2018-11-06T16:40:54.520Z,5.23
2018-11-06T16:43:24.976Z,5.67
2018-11-06T16:45:54.774Z,3.90
2018-11-06T16:48:25.610Z,5.23
2018-11-06T16:50:55.522Z,4.53
2018-11-06T16:53:25.434Z,3.47
2018-11-06T16:55:55.264Z,4.17
2018-11-06T16:58:25.082Z,5.70
2018-11-06T17:00:55.299Z,3.87
2018-11-06T17:03:25.263Z,3.87
2018-11-06T17:05:55.145Z,7.03
2018-11-06T17:08:24.995Z,3.37
2018-11-06T17:10:54.957Z,5.03
2018-11-06T17:13:25.220Z,2.90
2018-11-06T17:15:55.058Z,3.93
2018-11-06T17:18:24.826Z,5.70
2018-11-06T17:20:54.642Z,3.10
2018-11-06T17:23:24.577Z,2.63
2018-11-06T17:25:54.357Z,2.33
2018-11-06T17:28:24.301Z,2.03
2018-11-06T17:30:55.819Z,3.97
2018-11-06T17:33:25.649Z,7.17
2018-11-06T17:35:55.492Z,1.77
2018-11-06T17:38:25.463Z,1.63
2018-11-06T17:40:55.321Z,3.47
2018-11-06T17:43:25.314Z,1.33
2018-11-06T17:45:55.214Z,1.50
2018-11-06T17:48:25.033Z,1.30
2018-11-06T17:50:55.013Z,1.97
2018-11-06T17:53:25.688Z,2.37
2018-11-06T17:55:55.353Z,2.17
2018-11-06T17:58:25.269Z,1.50
2018-11-06T18:00:55.267Z,1.73
2018-11-06T18:03:25.181Z,1.50
2018-11-06T18:05:55.225Z,4.47
2018-11-06T18:08:25.962Z,1.97
2018-11-06T18:10:56.174Z,2.73
2018-11-06T18:13:26.678Z,5.77
2018-11-06T18:15:56.725Z,1.47
2018-11-06T18:18:26.593Z,1.33
2018-11-06T18:20:56.615Z,1.63
2018-11-06T18:23:26.478Z,1.03
2018-11-06T18:25:56.640Z,2.17
2018-11-06T18:28:26.659Z,0.90
2018-11-06T18:30:56.603Z,6.03
2018-11-06T18:33:27.203Z,2.80
2018-11-06T18:35:57.088Z,0.77
2018-11-06T18:38:27.828Z,0.97
2018-11-06T18:40:57.819Z,1.07
2018-11-06T18:43:27.679Z,5.07
2018-11-06T18:45:57.595Z,1.33
2018-11-06T18:48:27.493Z,2.77
2018-11-06T18:50:57.397Z,3.87
2018-11-06T18:53:27.213Z,1.47
2018-11-06T18:55:57.957Z,1.20
2018-11-06T18:58:27.941Z,2.30
2018-11-06T19:00:58.092Z,1.77
2018-11-06T19:03:27.977Z,4.13
2018-11-06T19:05:57.795Z,2.47
2018-11-06T19:08:27.679Z,2.97
2018-11-06T19:10:57.674Z,2.00
2018-11-06T19:14:56.877Z,3.20
2018-11-06T19:17:26.789Z,1.97
2018-11-06T19:19:56.652Z,3.73
2018-11-06T19:22:26.662Z,1.47
2018-11-06T19:24:56.562Z,3.07
2018-11-06T19:27:26.496Z,2.50
2018-11-06T19:29:56.454Z,1.80
2018-11-06T19:32:26.377Z,3.23
2018-11-06T19:34:56.360Z,2.23
2018-11-06T19:37:26.377Z,3.00
2018-11-06T19:39:56.255Z,3.23
2018-11-06T19:42:26.274Z,2.20
2018-11-06T19:44:56.142Z,2.90
2018-11-06T19:47:26.111Z,3.77
2018-11-06T19:49:56.175Z,3.40
2018-11-06T19:52:26.236Z,3.23
2018-11-06T19:54:56.022Z,2.97
2018-11-06T19:57:25.836Z,3.23
2018-11-06T19:59:55.632Z,2.80
2018-11-06T20:02:25.506Z,4.07
2018-11-06T20:04:55.328Z,3.10
2018-11-06T20:07:25.124Z,5.87
2018-11-06T20:09:55.025Z,3.03
2018-11-06T20:12:24.837Z,2.27
2018-11-06T20:14:54.820Z,2.60
2018-11-06T20:17:24.661Z,1.97
2018-11-06T20:19:54.660Z,2.20
2018-11-06T20:22:24.433Z,2.03
2018-11-06T20:24:54.300Z,1.90
2018-11-06T20:27:24.116Z,2.27
2018-11-06T20:29:54.967Z,2.00
2018-11-06T20:32:25.026Z,2.07
2018-11-06T20:34:54.856Z,5.30
2018-11-06T20:37:24.859Z,3.63
2018-11-06T20:39:55.500Z,2.00
2018-11-06T20:42:25.509Z,2.07
2018-11-06T20:44:55.668Z,3.13
2018-11-06T20:47:25.597Z,3.17
2018-11-06T20:49:55.808Z,1.70
2018-11-06T20:52:25.830Z,2.23
2018-11-06T20:54:55.722Z,7.10
2018-11-06T20:57:25.840Z,3.13
2018-11-06T20:59:55.697Z,2.73
2018-11-06T21:02:25.676Z,1.87
2018-11-06T21:04:55.537Z,11.80
2018-11-06T21:07:25.544Z,3.60
2018-11-06T21:09:55.466Z,2.30
2018-11-06T21:12:25.326Z,6.27
2018-11-06T21:14:55.495Z,3.70
2018-11-06T21:17:25.357Z,3.30
2018-11-06T21:19:55.285Z,4.70
2018-11-06T21:22:25.204Z,14.83
2018-11-06T21:24:55.193Z,3.93
2018-11-06T21:27:25.138Z,2.77
2018-11-06T21:29:54.955Z,4.70
2018-11-06T21:32:24.832Z,2.73
2018-11-06T21:34:54.796Z,3.30
2018-11-06T21:37:25.224Z,2.50
2018-11-06T21:39:55.331Z,3.20
2018-11-06T21:42:25.273Z,3.97
2018-11-06T21:44:55.771Z,3.57
2018-11-06T21:47:25.739Z,2.83
2018-11-06T21:49:56.294Z,2.83
2018-11-06T21:52:26.313Z,2.90
2018-11-06T21:54:56.169Z,2.97
2018-11-06T21:57:25.948Z,3.30
2018-11-06T21:59:56.133Z,3.77
2018-11-06T22:02:26.049Z,4.53
2018-11-06T22:04:56.541Z,3.57
2018-11-06T22:07:26.454Z,3.10
2018-11-06T22:09:56.237Z,3.17
2018-11-06T22:12:26.602Z,2.57
2018-11-06T22:14:56.481Z,3.30
2018-11-06T22:17:26.975Z,6.17
2018-11-06T22:19:56.780Z,2.80
2018-11-06T22:22:26.657Z,2.20
2018-11-06T22:24:56.657Z,3.33
2018-11-06T22:27:26.550Z,5.27
2018-11-06T22:29:56.591Z,2.33
2018-11-06T22:32:27.095Z,2.50
2018-11-06T22:42:08.681Z,3.93
2018-11-06T22:44:38.639Z,3.53
2018-11-06T22:47:08.569Z,3.57
2018-11-06T22:49:38.429Z,3.47
2018-11-06T22:52:08.541Z,3.63
2018-11-06T22:54:39.464Z,4.43
2018-11-06T22:57:09.421Z,3.60
2018-11-06T22:59:39.292Z,3.20
2018-11-06T23:02:09.973Z,4.00
2018-11-06T23:04:39.786Z,4.93
2018-11-06T23:07:13.808Z,3.13
2018-11-06T23:09:43.890Z,3.30
2018-11-06T23:12:13.937Z,2.97
2018-11-06T23:14:44.520Z,4.33
2018-11-06T23:17:14.525Z,2.30
2018-11-06T23:19:44.613Z,5.03
2018-11-06T23:22:14.554Z,3.03
2018-11-06T23:24:44.681Z,2.40
2018-11-06T23:27:15.705Z,2.70
2018-11-06T23:29:50.298Z,4.07
2018-11-06T23:32:20.615Z,1.70
2018-11-06T23:34:51.789Z,11.03
2018-11-06T23:37:22.937Z,1.73
2018-11-06T23:39:52.981Z,2.80
2018-11-06T23:42:22.962Z,2.70
2018-11-06T23:44:53.458Z,2.80
2018-11-06T23:47:23.341Z,4.60
2018-11-06T23:49:53.495Z,2.87
2018-11-06T23:52:24.059Z,3.33
2018-11-06T23:54:54.049Z,2.87
2018-11-06T23:57:24.494Z,3.33
2018-11-06T23:59:54.543Z,3.10
